Time;durP1;ratioP1;P1;durP2;ratioP2;P2;SDS_P1;SDS_P2;PMS_P1;PMS_P2;Temp;Humidity;BMP_temperature;BMP_pressure;BME280_temperature;BME280_humidity;BME280_pressure;Samples;Min_cycle;Max_cycle;Signal;HPM_P1;HPM_P2
2023/06/29 00:01:42;;;;;;;14.20;13.40;;;18.10;99.90;;;;;;4933735;29;21015;-73
2023/06/29 00:04:09;;;;;;;15.17;14.27;;;18.10;99.90;;;;;;4935342;29;20454;-73
2023/06/29 00:06:37;;;;;;;15.20;14.20;;;18.10;99.90;;;;;;4934562;29;20453;-72
2023/06/29 00:09:04;;;;;;;15.23;14.33;;;18.10;99.90;;;;;;4934996;29;20464;-72
2023/06/29 00:11:30;;;;;;;14.63;13.73;;;18.00;99.90;;;;;;4934579;29;20449;-73
2023/06/29 00:13:57;;;;;;;15.40;14.50;;;18.00;99.90;;;;;;4934311;29;20884;-73
2023/06/29 00:16:25;;;;;;;14.63;13.70;;;18.00;99.90;;;;;;4934560;29;20472;-73
2023/06/29 00:18:55;;;;;;;15.00;14.20;;;18.00;99.90;;;;;;4934467;29;20453;-73
2023/06/29 00:21:21;;;;;;;16.37;15.30;;;17.90;99.90;;;;;;4934335;29;20453;-73
2023/06/29 00:23:48;;;;;;;15.17;13.80;;;17.90;99.90;;;;;;4934369;29;20780;-73
2023/06/29 00:26:16;;;;;;;15.10;14.30;;;17.90;99.90;;;;;;4933911;29;20947;-73
2023/06/29 00:28:42;;;;;;;14.37;13.67;;;17.90;99.90;;;;;;4934343;29;20490;-73
2023/06/29 00:31:09;;;;;;;14.97;13.97;;;17.90;99.90;;;;;;4934170;29;20465;-73
2023/06/29 00:33:37;;;;;;;13.60;12.90;;;17.80;99.90;;;;;;4933914;29;20504;-73
2023/06/29 00:36:04;;;;;;;14.90;14.00;;;17.80;99.90;;;;;;4934215;29;20453;-73
2023/06/29 00:38:31;;;;;;;15.70;14.80;;;17.80;99.90;;;;;;4934173;29;20458;-73
2023/06/29 00:40:57;;;;;;;15.40;14.37;;;17.70;99.90;;;;;;4934294;29;20458;-73
2023/06/29 00:43:24;;;;;;;15.43;14.50;;;17.60;99.90;;;;;;4934006;29;20820;-71
2023/06/29 00:45:51;;;;;;;16.00;14.70;;;17.60;99.90;;;;;;4934103;29;20454;-72
2023/06/29 00:48:18;;;;;;;15.80;14.80;;;17.60;99.90;;;;;;4933997;29;20457;-72
2023/06/29 00:50:46;;;;;;;16.90;15.97;;;17.50;99.90;;;;;;4933938;29;20456;-72
2023/06/29 00:53:12;;;;;;;13.80;13.20;;;17.50;99.90;;;;;;4934221;29;20496;-72
2023/06/29 00:55:39;;;;;;;15.70;14.70;;;17.50;99.90;;;;;;4933895;29;20453;-72
2023/06/29 00:58:07;;;;;;;15.33;14.20;;;17.40;99.90;;;;;;4933765;29;20465;-72
2023/06/29 01:00:33;;;;;;;15.80;14.80;;;17.40;99.90;;;;;;4933847;29;20485;-72
2023/06/29 01:03:00;;;;;;;16.73;15.73;;;17.40;99.90;;;;;;4933910;29;20884;-72
2023/06/29 01:05:34;;;;;;;15.73;14.63;;;17.30;99.90;;;;;;4933694;29;20465;-72
2023/06/29 01:08:09;;;;;;;15.33;14.50;;;17.20;99.90;;;;;;4934059;29;20550;-72
2023/06/29 01:10:37;;;;;;;17.03;15.43;;;17.10;99.90;;;;;;4934037;29;20456;-72
2023/06/29 01:13:06;;;;;;;16.80;15.80;;;17.10;99.90;;;;;;4933646;29;21068;-72
2023/06/29 01:15:34;;;;;;;15.87;14.80;;;17.00;99.90;;;;;;4933518;29;20475;-72
2023/06/29 01:18:03;;;;;;;15.27;14.20;;;17.00;99.90;;;;;;4933679;29;20457;-72
2023/06/29 01:20:31;;;;;;;15.87;14.60;;;17.00;99.90;;;;;;4933652;29;20529;-72
2023/06/29 01:23:00;;;;;;;15.43;14.23;;;17.00;99.90;;;;;;4933558;29;20873;-73
2023/06/29 01:25:29;;;;;;;14.60;13.70;;;17.00;99.90;;;;;;4933370;29;20461;-73
2023/06/29 01:27:55;;;;;;;14.83;13.93;;;17.10;99.90;;;;;;4933432;29;20465;-72
2023/06/29 01:30:23;;;;;;;13.63;13.10;;;17.00;99.90;;;;;;4933471;29;20453;-73
2023/06/29 01:32:50;;;;;;;14.63;13.73;;;17.10;99.90;;;;;;4930369;29;20614;-72
2023/06/29 01:35:17;;;;;;;13.20;12.60;;;17.10;99.90;;;;;;4914187;29;20809;-72
2023/06/29 01:37:48;;;;;;;14.20;13.40;;;17.10;99.90;;;;;;4913483;29;20466;-72
2023/06/29 01:40:20;;;;;;;13.30;12.70;;;17.10;99.90;;;;;;4914424;29;20462;-72
2023/06/29 01:42:49;;;;;;;14.80;14.00;;;17.00;99.90;;;;;;4914200;29;20926;-72
2023/06/29 01:45:19;;;;;;;13.87;13.27;;;17.00;99.90;;;;;;4914090;29;20458;-72
2023/06/29 01:47:46;;;;;;;14.83;13.97;;;17.00;99.90;;;;;;4914307;29;20473;-72
2023/06/29 01:50:14;;;;;;;15.70;14.90;;;16.90;99.90;;;;;;4914202;29;20562;-72
2023/06/29 01:52:41;;;;;;;14.30;13.40;;;16.90;99.90;;;;;;4914300;29;20561;-72
2023/06/29 01:55:10;;;;;;;15.40;14.70;;;16.90;99.90;;;;;;4914068;29;20866;-72
2023/06/29 01:57:37;;;;;;;13.20;12.70;;;16.80;99.90;;;;;;4914017;29;21029;-72
2023/06/29 02:00:06;;;;;;;15.13;14.23;;;16.80;99.90;;;;;;4914292;29;21166;-72
2023/06/29 02:02:33;;;;;;;15.00;14.00;;;16.70;99.90;;;;;;4914048;29;20490;-72
2023/06/29 02:04:59;;;;;;;14.20;13.50;;;16.60;99.90;;;;;;4914061;29;20461;-72
2023/06/29 02:07:26;;;;;;;14.10;13.30;;;16.60;99.90;;;;;;4914042;29;20462;-72
2023/06/29 02:09:52;;;;;;;15.30;14.30;;;16.60;99.90;;;;;;4913987;29;20450;-73
2023/06/29 02:12:19;;;;;;;16.47;15.13;;;16.50;99.90;;;;;;4913781;29;20936;-73
2023/06/29 02:14:46;;;;;;;14.97;14.20;;;16.50;99.90;;;;;;4913676;29;20485;-72
2023/06/29 02:17:14;;;;;;;14.23;13.53;;;16.50;99.90;;;;;;4913915;29;20471;-72
2023/06/29 02:19:40;;;;;;;14.43;13.83;;;16.50;99.90;;;;;;4913731;29;20513;-72
2023/06/29 02:22:07;;;;;;;14.07;13.47;;;16.50;99.90;;;;;;4913692;29;20474;-72
2023/06/29 02:24:34;;;;;;;13.70;13.13;;;16.50;99.90;;;;;;4913625;29;20463;-72
2023/06/29 02:27:02;;;;;;;14.67;13.87;;;16.40;99.90;;;;;;4913786;29;20490;-72
2023/06/29 02:29:28;;;;;;;14.43;13.73;;;16.40;99.90;;;;;;4913755;29;20481;-72
2023/06/29 02:31:55;;;;;;;13.97;13.37;;;16.30;99.90;;;;;;4913523;29;20470;-72
2023/06/29 02:34:23;;;;;;;14.37;13.50;;;16.30;99.90;;;;;;4913354;29;20504;-72
2023/06/29 02:36:49;;;;;;;15.03;14.10;;;16.30;99.90;;;;;;4913620;29;20455;-72
2023/06/29 02:39:16;;;;;;;14.10;13.43;;;16.30;99.90;;;;;;4913482;29;20454;-73
2023/06/29 02:41:43;;;;;;;14.63;14.00;;;16.30;99.90;;;;;;4913523;29;20466;-71
2023/06/29 02:44:09;;;;;;;14.63;14.00;;;16.30;99.90;;;;;;4913488;29;20446;-72
2023/06/29 02:46:36;;;;;;;14.33;13.43;;;16.20;99.90;;;;;;4913481;29;20462;-72
2023/06/29 02:49:03;;;;;;;14.53;13.83;;;16.20;99.90;;;;;;4913747;29;20509;-72
2023/06/29 02:51:31;;;;;;;13.70;13.07;;;16.20;99.90;;;;;;4917182;29;20461;-72
2023/06/29 02:53:58;;;;;;;14.63;13.80;;;16.20;99.90;;;;;;4917029;29;20888;-72
2023/06/29 02:56:25;;;;;;;14.40;13.80;;;16.20;99.90;;;;;;4917133;29;20465;-71
2023/06/29 02:58:51;;;;;;;15.10;14.30;;;16.10;99.90;;;;;;4916901;29;20848;-71
2023/06/29 03:01:18;;;;;;;14.30;13.30;;;16.10;99.90;;;;;;4916960;29;20461;-73
2023/06/29 03:03:45;;;;;;;14.23;13.50;;;16.00;99.90;;;;;;4916928;29;20454;-74
2023/06/29 03:06:12;;;;;;;14.50;13.80;;;16.00;99.90;;;;;;4916761;29;20465;-72
2023/06/29 03:08:40;;;;;;;14.40;13.80;;;16.00;99.90;;;;;;4916752;29;20461;-71
2023/06/29 03:11:07;;;;;;;15.33;14.73;;;16.00;99.90;;;;;;4916798;29;20458;-72
2023/06/29 03:13:34;;;;;;;16.53;15.33;;;16.00;99.90;;;;;;4916467;29;20493;-72
2023/06/29 03:16:01;;;;;;;15.50;14.80;;;16.00;99.90;;;;;;4916677;29;20957;-72
2023/06/29 03:18:27;;;;;;;15.53;14.70;;;16.00;99.90;;;;;;4916721;29;20478;-72
2023/06/29 03:20:54;;;;;;;15.90;15.10;;;16.00;99.90;;;;;;4916578;29;20971;-72
2023/06/29 03:23:21;;;;;;;15.43;14.73;;;16.00;99.90;;;;;;4915480;29;20462;-72
2023/06/29 03:25:49;;;;;;;16.10;15.20;;;16.00;99.90;;;;;;4915260;29;20458;-72
2023/06/29 03:28:16;;;;;;;15.07;14.47;;;16.00;99.90;;;;;;4915260;29;20979;-72
2023/06/29 03:30:42;;;;;;;15.97;15.27;;;16.00;99.90;;;;;;4916264;29;20450;-72
2023/06/29 03:33:09;;;;;;;15.50;14.70;;;16.00;99.90;;;;;;4914685;29;20604;-72
2023/06/29 03:35:36;;;;;;;15.73;14.93;;;15.90;99.90;;;;;;4915910;29;20450;-71
2023/06/29 03:38:07;;;;;;;15.50;14.70;;;15.90;99.90;;;;;;4915716;29;20566;-72
2023/06/29 03:40:33;;;;;;;15.80;15.10;;;15.90;99.90;;;;;;4915934;29;20513;-73
2023/06/29 03:43:01;;;;;;;17.10;15.90;;;15.90;99.90;;;;;;4915875;29;20457;-72
2023/06/29 03:45:30;;;;;;;14.67;13.97;;;15.90;99.90;;;;;;4915951;29;20455;-73
2023/06/29 03:47:56;;;;;;;14.60;13.70;;;15.90;99.90;;;;;;4915761;29;20842;-73
2023/06/29 03:50:23;;;;;;;14.93;14.13;;;15.90;99.90;;;;;;4915664;29;20454;-72
2023/06/29 03:52:50;;;;;;;13.27;12.77;;;15.90;99.90;;;;;;4915561;29;21201;-72
2023/06/29 03:55:18;;;;;;;15.83;15.03;;;15.90;99.90;;;;;;4915645;29;20465;-71
2023/06/29 03:57:45;;;;;;;15.43;14.73;;;15.90;99.90;;;;;;4915569;29;20466;-71
2023/06/29 04:00:14;;;;;;;14.30;13.67;;;15.90;99.90;;;;;;4915514;29;20458;-71
2023/06/29 04:02:41;;;;;;;15.30;14.50;;;15.90;99.90;;;;;;4914848;29;20462;-71
2023/06/29 04:05:08;;;;;;;16.87;15.97;;;16.00;99.90;;;;;;4915416;29;20487;-71
2023/06/29 04:07:36;;;;;;;15.97;15.17;;;16.00;99.90;;;;;;4915285;29;20462;-71
2023/06/29 04:10:02;;;;;;;16.20;15.47;;;16.00;99.90;;;;;;4915493;29;20466;-72
2023/06/29 04:12:29;;;;;;;16.87;16.07;;;16.10;99.90;;;;;;4915191;29;20450;-71
2023/06/29 04:14:56;;;;;;;17.20;16.30;;;16.10;99.90;;;;;;4915179;29;20518;-72
2023/06/29 04:17:24;;;;;;;16.33;15.43;;;16.20;99.90;;;;;;4915021;29;20461;-72
2023/06/29 04:19:50;;;;;;;16.00;15.30;;;16.20;99.90;;;;;;4914959;29;20462;-72
2023/06/29 04:22:17;;;;;;;16.00;14.90;;;16.20;99.90;;;;;;4914963;29;20819;-72
2023/06/29 04:24:44;;;;;;;15.33;14.63;;;16.20;99.90;;;;;;4914913;29;20462;-72
2023/06/29 04:27:11;;;;;;;15.07;14.40;;;16.50;99.90;;;;;;4915275;29;20475;-72
2023/06/29 04:29:37;;;;;;;14.80;14.00;;;16.90;99.90;;;;;;4914820;29;20454;-71
2023/06/29 04:32:04;;;;;;;13.80;13.20;;;17.20;99.90;;;;;;4914873;29;20475;-71
2023/06/29 04:34:33;;;;;;;13.93;13.23;;;17.60;99.90;;;;;;4914653;29;20509;-71
2023/06/29 04:37:01;;;;;;;13.53;13.03;;;17.80;99.90;;;;;;4914899;29;20458;-71
2023/06/29 04:39:28;;;;;;;14.57;13.50;;;17.90;99.90;;;;;;4914920;29;20458;-71
2023/06/29 04:42:01;;;;;;;13.97;13.17;;;18.10;99.90;;;;;;4914858;29;20462;-72
2023/06/29 04:44:31;;;;;;;14.10;13.30;;;18.30;99.90;;;;;;4914898;29;20455;-73
2023/06/29 04:46:59;;;;;;;14.60;13.80;;;18.50;99.90;;;;;;4914811;29;20572;-72
2023/06/29 04:49:27;;;;;;;14.10;13.43;;;18.70;99.90;;;;;;4914895;29;20469;-73
2023/06/29 04:51:59;;;;;;;13.27;12.57;;;18.70;99.90;;;;;;4914855;29;20541;-73
2023/06/29 04:54:26;;;;;;;14.03;13.43;;;18.80;99.90;;;;;;4915096;29;20502;-72
2023/06/29 04:56:52;;;;;;;14.40;13.70;;;19.10;99.90;;;;;;4914987;29;20482;-73
2023/06/29 04:59:21;;;;;;;14.10;13.10;;;19.20;99.90;;;;;;4914778;29;20454;-73
2023/06/29 05:01:48;;;;;;;13.80;13.20;;;19.10;99.90;;;;;;4914669;29;20454;-73
2023/06/29 05:04:14;;;;;;;14.50;13.60;;;19.30;99.90;;;;;;4914687;29;20462;-73
2023/06/29 05:06:41;;;;;;;14.47;13.87;;;19.70;99.90;;;;;;4914853;29;20870;-72
2023/06/29 05:09:09;;;;;;;14.00;13.30;;;19.80;99.90;;;;;;4914741;29;20462;-72
2023/06/29 05:11:35;;;;;;;13.27;12.57;;;19.80;99.90;;;;;;4914101;29;20451;-72
2023/06/29 05:14:02;;;;;;;15.83;14.87;;;19.90;99.90;;;;;;4913848;29;20489;-72
2023/06/29 05:16:29;;;;;;;14.57;13.77;;;20.20;99.90;;;;;;4914006;29;20469;-72
2023/06/29 05:18:56;;;;;;;13.63;12.83;;;20.10;99.90;;;;;;4914219;29;20497;-72
2023/06/29 05:21:23;;;;;;;13.80;13.20;;;20.10;99.90;;;;;;4914007;29;20505;-72
2023/06/29 05:23:49;;;;;;;14.17;13.50;;;20.30;99.90;;;;;;4914120;29;20482;-72
2023/06/29 05:26:17;;;;;;;14.93;14.13;;;20.60;99.90;;;;;;4913895;29;20541;-72
2023/06/29 05:28:44;;;;;;;15.03;14.33;;;20.50;99.90;;;;;;4913913;29;20945;-72
2023/06/29 05:31:11;;;;;;;14.13;13.20;;;20.70;99.90;;;;;;4913896;29;21024;-73
2023/06/29 05:33:37;;;;;;;13.50;12.80;;;21.00;99.90;;;;;;4913888;29;20598;-73
2023/06/29 05:36:04;;;;;;;12.83;12.30;;;21.20;99.90;;;;;;4914026;29;20462;-73
2023/06/29 05:38:31;;;;;;;12.80;12.30;;;21.20;99.90;;;;;;4913728;29;20834;-73
2023/06/29 05:40:58;;;;;;;13.97;13.27;;;21.20;99.90;;;;;;4913727;29;20458;-73
2023/06/29 05:43:26;;;;;;;13.93;13.33;;;21.30;99.90;;;;;;4913690;29;20577;-73
2023/06/29 05:45:52;;;;;;;13.03;12.43;;;21.60;99.90;;;;;;4913714;29;20458;-73
2023/06/29 05:48:19;;;;;;;13.10;12.60;;;21.60;99.60;;;;;;4913707;29;20458;-73
2023/06/29 05:50:45;;;;;;;12.93;12.33;;;21.60;99.90;;;;;;4913641;29;20466;-73
2023/06/29 05:53:12;;;;;;;13.87;12.87;;;21.70;99.50;;;;;;4913720;29;20462;-74
2023/06/29 05:55:39;;;;;;;13.37;12.67;;;22.00;99.20;;;;;;4913448;29;20497;-74
2023/06/29 05:58:05;;;;;;;12.97;12.47;;;22.30;98.80;;;;;;4913562;29;20458;-73
2023/06/29 06:00:33;;;;;;;14.03;13.30;;;22.30;98.80;;;;;;4913624;29;20454;-74
2023/06/29 06:03:00;;;;;;;14.20;13.60;;;22.40;98.70;;;;;;4913561;29;20499;-73
2023/06/29 06:05:27;;;;;;;14.43;13.60;;;22.50;98.80;;;;;;4914664;29;20754;-74
2023/06/29 06:07:53;;;;;;;14.30;13.40;;;22.50;98.30;;;;;;4914618;29;20822;-74
2023/06/29 06:10:20;;;;;;;13.30;12.70;;;22.50;98.10;;;;;;4914547;29;20477;-73
2023/06/29 06:12:47;;;;;;;13.80;13.20;;;22.60;98.20;;;;;;4914824;29;20465;-73
2023/06/29 06:15:14;;;;;;;13.10;12.60;;;22.60;98.20;;;;;;4914529;29;20493;-73
2023/06/29 06:17:42;;;;;;;13.73;13.13;;;23.10;97.60;;;;;;4914781;29;20828;-74
2023/06/29 06:20:10;;;;;;;15.90;15.00;;;23.10;96.80;;;;;;4914694;29;20461;-73
2023/06/29 06:22:37;;;;;;;14.30;13.60;;;23.10;96.80;;;;;;4914379;29;20965;-75
2023/06/29 06:25:04;;;;;;;13.50;12.90;;;23.30;96.30;;;;;;4916224;29;20991;-73
2023/06/29 06:27:31;;;;;;;14.53;13.93;;;23.60;95.80;;;;;;4918111;29;20454;-73
2023/06/29 06:29:57;;;;;;;14.10;13.50;;;23.60;95.50;;;;;;4918285;29;20453;-73
2023/06/29 06:32:25;;;;;;;13.50;12.87;;;23.90;95.10;;;;;;4918096;29;20490;-73
2023/06/29 06:34:53;;;;;;;13.80;13.20;;;24.10;94.30;;;;;;4917796;29;20581;-72
2023/06/29 06:37:20;;;;;;;14.43;13.83;;;24.10;94.20;;;;;;4917832;29;20484;-72
2023/06/29 06:39:47;;;;;;;13.97;13.37;;;24.10;94.40;;;;;;4917737;29;20466;-72
2023/06/29 06:42:14;;;;;;;14.50;13.70;;;24.80;93.50;;;;;;4917625;29;20561;-73
2023/06/29 06:44:51;;;;;;;13.90;13.40;;;25.10;92.10;;;;;;4917789;29;20983;-73
2023/06/29 06:47:18;;;;;;;13.80;13.27;;;25.40;91.30;;;;;;4917780;29;20458;-73
2023/06/29 06:49:44;;;;;;;13.10;12.60;;;25.40;90.60;;;;;;4917581;29;20462;-74
2023/06/29 06:52:12;;;;;;;14.23;13.33;;;25.30;90.80;;;;;;4917656;29;20948;-73
2023/06/29 06:54:39;;;;;;;13.50;12.80;;;25.70;89.70;;;;;;4917675;29;20501;-73
2023/06/29 06:57:06;;;;;;;12.73;12.10;;;25.90;88.80;;;;;;4917658;29;20526;-73
2023/06/29 06:59:32;;;;;;;13.60;13.00;;;25.80;88.30;;;;;;4917337;29;20454;-72
2023/06/29 07:01:59;;;;;;;12.83;12.33;;;25.90;87.80;;;;;;4917487;29;20454;-73
2023/06/29 07:04:26;;;;;;;14.37;13.77;;;26.40;84.70;;;;;;4916858;29;20474;-75
2023/06/29 07:06:52;;;;;;;13.47;12.87;;;26.50;84.80;;;;;;4916182;29;20454;-75
2023/06/29 07:09:20;;;;;;;13.17;12.67;;;26.50;84.40;;;;;;4917076;29;20465;-75
2023/06/29 07:11:47;;;;;;;14.03;13.53;;;26.90;82.50;;;;;;4916878;29;20568;-75
2023/06/29 07:14:15;;;;;;;13.23;12.73;;;26.80;82.20;;;;;;4916861;29;20489;-75
2023/06/29 07:16:42;;;;;;;13.87;13.27;;;26.90;80.30;;;;;;4917203;29;20462;-75
2023/06/29 07:19:09;;;;;;;13.80;13.30;;;26.60;80.60;;;;;;4917020;29;20457;-75
2023/06/29 07:21:36;;;;;;;14.17;13.57;;;26.70;80.80;;;;;;4911514;29;20933;-75
2023/06/29 07:24:03;;;;;;;13.87;13.37;;;27.30;78.20;;;;;;4916586;29;20832;-76
2023/06/29 07:26:31;;;;;;;15.27;14.40;;;27.50;77.30;;;;;;4916840;29;20457;-75
2023/06/29 07:28:58;;;;;;;15.03;13.90;;;27.60;76.60;;;;;;4916807;29;20827;-75
2023/06/29 07:31:25;;;;;;;13.50;13.00;;;28.50;90.60;;;;;;4916717;29;20824;-75
2023/06/29 07:33:53;;;;;;;14.30;13.80;;;28.30;74.20;;;;;;4916469;29;20564;-75
2023/06/29 07:36:19;;;;;;;14.60;14.10;;;28.80;73.60;;;;;;4915465;29;20525;-75
2023/06/29 07:38:46;;;;;;;13.73;13.23;;;29.20;71.80;;;;;;4916658;29;20469;-74
2023/06/29 07:41:13;;;;;;;15.03;14.53;;;28.90;71.20;;;;;;4916649;29;20873;-75
2023/06/29 07:43:46;;;;;;;13.70;13.20;;;28.20;73.50;;;;;;4916346;29;20513;-75
2023/06/29 07:46:13;;;;;;;14.17;13.57;;;28.30;73.90;;;;;;4916723;29;20474;-75
2023/06/29 07:48:40;;;;;;;13.90;13.30;;;28.20;73.40;;;;;;4916421;29;20537;-75
2023/06/29 07:51:07;;;;;;;14.50;14.00;;;28.40;74.10;;;;;;4916528;29;20522;-75
2023/06/29 07:53:34;;;;;;;14.57;14.07;;;28.80;72.30;;;;;;4916281;29;20568;-75
2023/06/29 07:56:00;;;;;;;14.13;13.60;;;29.30;69.50;;;;;;4916305;29;20494;-75
2023/06/29 07:58:27;;;;;;;14.67;14.17;;;29.20;68.80;;;;;;4916317;29;20465;-75
2023/06/29 08:00:56;;;;;;;14.63;13.90;;;29.70;69.20;;;;;;4916225;29;20458;-75
2023/06/29 08:03:23;;;;;;;14.97;14.37;;;30.70;64.60;;;;;;4916032;29;20957;-76
2023/06/29 08:05:51;;;;;;;15.20;14.50;;;30.70;63.50;;;;;;4915986;29;20528;-75
2023/06/29 08:08:17;;;;;;;14.57;14.07;;;30.90;63.00;;;;;;4915962;29;20977;-76
2023/06/29 08:10:44;;;;;;;15.43;14.83;;;31.30;60.80;;;;;;4916096;29;20458;-75
2023/06/29 08:13:11;;;;;;;15.80;14.73;;;31.90;60.10;;;;;;4915978;29;20458;-75
2023/06/29 08:15:38;;;;;;;15.27;14.77;;;32.60;57.80;;;;;;4915744;29;20486;-76
2023/06/29 08:18:06;;;;;;;16.37;15.77;;;32.50;57.60;;;;;;4915782;29;20462;-75
2023/06/29 08:20:32;;;;;;;14.83;14.23;;;32.10;57.00;;;;;;4915666;29;20462;-74
2023/06/29 08:22:59;;;;;;;16.03;15.33;;;31.80;58.10;;;;;;4915782;29;20461;-77
2023/06/29 08:25:26;;;;;;;15.13;14.53;;;31.90;57.90;;;;;;4915720;29;20447;-75
2023/06/29 08:27:52;;;;;;;17.70;16.93;;;32.10;56.80;;;;;;4915422;29;20455;-79
2023/06/29 08:30:19;;;;;;;15.33;14.80;;;31.70;57.20;;;;;;4909004;29;20969;-75
2023/06/29 08:32:48;;;;;;;14.70;14.20;;;31.90;58.10;;;;;;4907483;29;20490;-75
2023/06/29 08:35:16;;;;;;;14.60;14.10;;;32.10;56.60;;;;;;4915669;29;20505;-75
2023/06/29 08:37:43;;;;;;;14.80;14.30;;;32.10;57.00;;;;;;4916073;29;20458;-74
2023/06/29 08:40:11;;;;;;;14.80;14.30;;;32.10;56.60;;;;;;4918894;29;20461;-75
2023/06/29 08:42:38;;;;;;;15.13;14.47;;;32.10;56.30;;;;;;4934760;29;20450;-74
2023/06/29 08:45:06;;;;;;;14.83;14.33;;;32.30;56.10;;;;;;4934567;29;20453;-75
2023/06/29 08:47:34;;;;;;;15.40;14.80;;;31.40;56.90;;;;;;4930567;29;20879;-73
2023/06/29 08:50:04;;;;;;;13.77;13.20;;;30.90;57.70;;;;;;4934507;29;20485;-75
2023/06/29 08:52:34;;;;;;;14.40;14.00;;;30.30;57.10;;;;;;4934524;29;20445;-74
2023/06/29 08:55:02;;;;;;;15.30;14.67;;;30.80;57.30;;;;;;4934575;29;20862;-75
2023/06/29 08:57:31;;;;;;;15.63;15.03;;;31.80;56.10;;;;;;4933617;29;20465;-74
2023/06/29 08:59:58;;;;;;;15.30;14.70;;;32.30;55.30;;;;;;4933891;29;20787;-75
2023/06/29 09:02:26;;;;;;;14.07;13.47;;;32.80;54.30;;;;;;4933782;29;20823;-75
2023/06/29 09:04:52;;;;;;;14.50;14.00;;;32.80;53.50;;;;;;4931386;29;20481;-75
2023/06/29 09:07:19;;;;;;;15.87;15.37;;;33.00;52.60;;;;;;4933683;29;20943;-75
2023/06/29 09:09:47;;;;;;;15.10;14.60;;;32.60;53.40;;;;;;4933592;29;20456;-75
2023/06/29 09:12:14;;;;;;;15.63;15.03;;;33.00;53.10;;;;;;4931161;29;20473;-75
2023/06/29 09:14:44;;;;;;;15.43;14.73;;;34.60;51.30;;;;;;4933531;29;20526;-75
2023/06/29 09:17:14;;;;;;;15.03;14.53;;;35.30;49.40;;;;;;4933951;29;20545;-75
2023/06/29 12:28:24;;;;;;;18.20;17.60;;;35.90;39.40;;;;;;5030493;23;20490;-73
2023/06/29 12:30:51;;;;;;;17.77;17.00;;;36.50;39.20;;;;;;4933186;29;20481;-73
2023/06/29 12:33:18;;;;;;;16.10;15.30;;;37.00;38.50;;;;;;4933499;29;20542;-73
2023/06/29 12:35:45;;;;;;;16.77;16.07;;;36.80;38.90;;;;;;4934042;29;20489;-73
2023/06/29 12:38:12;;;;;;;15.90;15.10;;;37.40;39.30;;;;;;4933616;29;20457;-73
2023/06/29 12:40:38;;;;;;;15.87;15.00;;;37.10;38.40;;;;;;4933441;29;20457;-72
2023/06/29 12:43:05;;;;;;;15.23;14.63;;;35.90;39.20;;;;;;4933536;29;20633;-73
2023/06/29 12:45:35;;;;;;;16.00;15.30;;;35.10;40.70;;;;;;4933523;29;20457;-72
2023/06/29 12:48:03;;;;;;;15.50;14.77;;;34.70;41.40;;;;;;4933603;29;20927;-72
2023/06/29 12:50:29;;;;;;;15.60;14.90;;;34.20;41.70;;;;;;4933570;29;20496;-72
2023/06/29 12:52:56;;;;;;;16.20;15.50;;;33.80;42.60;;;;;;4933497;29;20803;-72
2023/06/29 12:55:23;;;;;;;14.73;14.13;;;33.20;43.10;;;;;;4933290;29;20866;-73
2023/06/29 12:57:49;;;;;;;15.53;14.93;;;32.70;43.80;;;;;;4933268;29;20465;-72
2023/06/29 13:00:19;;;;;;;14.57;14.07;;;32.70;44.10;;;;;;4933379;29;20830;-73
2023/06/29 13:02:47;;;;;;;14.17;13.60;;;32.80;45.60;;;;;;4933413;29;20545;-72
2023/06/29 13:05:14;;;;;;;14.73;14.13;;;33.20;45.90;;;;;;4933237;29;20456;-73
2023/06/29 13:07:42;;;;;;;14.87;14.37;;;32.50;46.80;;;;;;4933034;29;20615;-72
2023/06/29 13:10:11;;;;;;;15.00;14.40;;;31.90;47.80;;;;;;4933252;29;20489;-72
2023/06/29 13:12:39;;;;;;;13.80;13.30;;;31.70;48.60;;;;;;4933207;29;20464;-73
2023/06/29 13:15:07;;;;;;;15.00;14.30;;;31.20;49.40;;;;;;4932923;29;20462;-73
2023/06/29 13:17:34;;;;;;;15.70;14.90;;;31.40;49.80;;;;;;4932814;29;20818;-73
2023/06/29 13:20:02;;;;;;;15.80;15.20;;;31.60;49.80;;;;;;4932763;29;20468;-72
2023/06/29 13:22:29;;;;;;;14.97;14.40;;;32.00;49.50;;;;;;4933168;29;20564;-73
2023/06/29 13:24:56;;;;;;;14.80;14.30;;;32.50;48.20;;;;;;4933159;29;20464;-73
2023/06/29 13:27:23;;;;;;;15.20;14.60;;;33.00;47.60;;;;;;4932446;29;20500;-73
2023/06/29 13:29:50;;;;;;;15.90;15.00;;;33.20;47.10;;;;;;4932796;29;20461;-73
2023/06/29 13:32:16;;;;;;;14.80;14.30;;;33.10;46.80;;;;;;4932901;29;20560;-72
2023/06/29 13:34:43;;;;;;;15.50;14.70;;;32.60;47.70;;;;;;4932591;29;20931;-73
2023/06/29 13:37:11;;;;;;;14.87;14.27;;;32.40;48.10;;;;;;4932622;29;20841;-73
2023/06/29 13:39:38;;;;;;;14.97;14.37;;;32.40;47.90;;;;;;4932846;29;21019;-73
2023/06/29 13:42:09;;;;;;;14.40;13.53;;;32.40;48.30;;;;;;4932741;29;20516;-73
2023/06/29 13:44:36;;;;;;;14.43;13.77;;;32.30;48.10;;;;;;4932975;29;20825;-73
2023/06/29 13:47:03;;;;;;;14.43;13.70;;;32.20;47.90;;;;;;4932711;29;20940;-72
2023/06/29 13:49:30;;;;;;;14.73;14.13;;;31.80;48.40;;;;;;4933087;29;20449;-73
2023/06/29 13:51:56;;;;;;;13.77;13.17;;;31.30;48.90;;;;;;4932706;29;20460;-72
2023/06/29 13:54:24;;;;;;;14.37;13.63;;;31.00;63.20;;;;;;4932442;29;20461;-73
2023/06/29 13:56:52;;;;;;;14.80;13.97;;;31.00;50.00;;;;;;4932212;29;20500;-73
2023/06/29 13:59:19;;;;;;;14.47;13.93;;;31.10;49.90;;;;;;4932437;29;20461;-73
2023/06/29 14:01:45;;;;;;;14.80;14.30;;;31.20;49.70;;;;;;4932557;29;20454;-73
2023/06/29 14:04:12;;;;;;;13.43;12.77;;;31.30;49.60;;;;;;4932546;29;20791;-73
2023/06/29 14:06:41;;;;;;;13.70;13.20;;;31.50;49.50;;;;;;4932254;29;20456;-73
2023/06/29 14:09:09;;;;;;;14.30;13.80;;;31.60;49.10;;;;;;4932458;29;20450;-73
2023/06/29 14:11:37;;;;;;;14.70;14.10;;;32.00;59.60;;;;;;4932472;29;20469;-73
2023/06/29 14:14:04;;;;;;;14.97;14.10;;;31.90;48.80;;;;;;4932532;29;20457;-73
2023/06/29 14:16:31;;;;;;;14.73;14.03;;;32.00;48.80;;;;;;4932526;29;20864;-73
2023/06/29 14:19:00;;;;;;;14.80;14.20;;;32.00;48.80;;;;;;4932441;29;20464;-73
2023/06/29 14:21:27;;;;;;;13.53;13.13;;;32.30;49.00;;;;;;4932646;29;20776;-73
2023/06/29 14:23:54;;;;;;;15.13;14.57;;;32.30;48.40;;;;;;4932223;29;20465;-73
2023/06/29 14:26:21;;;;;;;13.90;13.40;;;32.10;48.50;;;;;;4932033;29;20880;-73
2023/06/29 14:28:49;;;;;;;14.00;13.20;;;31.80;48.90;;;;;;4932414;29;20504;-73
2023/06/29 14:31:17;;;;;;;13.97;13.40;;;31.90;49.10;;;;;;4932334;29;20453;-73
2023/06/29 14:33:44;;;;;;;14.00;13.47;;;31.90;49.00;;;;;;4932452;29;20457;-73
2023/06/29 14:36:11;;;;;;;14.63;14.10;;;32.10;49.20;;;;;;4931972;29;20489;-73
2023/06/29 14:38:37;;;;;;;13.73;13.23;;;32.70;48.20;;;;;;4932083;29;20994;-73
2023/06/29 14:41:04;;;;;;;14.97;14.30;;;32.50;48.40;;;;;;4931915;29;20480;-73
2023/06/29 14:43:31;;;;;;;15.47;14.63;;;31.70;49.10;;;;;;4931972;29;20453;-72
2023/06/29 14:45:59;;;;;;;14.27;13.77;;;31.60;49.40;;;;;;4933605;29;20445;-72
2023/06/29 14:48:26;;;;;;;13.63;12.93;;;31.20;49.90;;;;;;4935422;29;20450;-73
2023/06/29 14:50:53;;;;;;;13.80;13.13;;;30.90;50.90;;;;;;4935920;29;20923;-73
2023/06/29 14:53:20;;;;;;;15.30;14.50;;;30.70;51.10;;;;;;4935751;29;20460;-73
2023/06/29 14:55:48;;;;;;;14.67;14.07;;;30.60;51.20;;;;;;4935536;29;20496;-72
2023/06/29 14:58:15;;;;;;;14.53;13.93;;;30.50;51.40;;;;;;4935529;29;20457;-73
2023/06/29 15:00:42;;;;;;;15.17;14.33;;;30.60;51.70;;;;;;4935662;29;20483;-73
2023/06/29 15:03:10;;;;;;;14.00;13.50;;;30.50;51.60;;;;;;4935444;29;20453;-73
2023/06/29 15:05:37;;;;;;;15.27;14.47;;;30.60;51.80;;;;;;4935502;29;20457;-73
2023/06/29 15:08:04;;;;;;;13.90;13.40;;;29.90;65.30;;;;;;4935254;29;20460;-72
2023/06/29 15:10:30;;;;;;;13.70;13.20;;;30.20;52.20;;;;;;4932984;29;20458;-72
2023/06/29 15:12:57;;;;;;;14.83;14.03;;;30.50;51.80;;;;;;4935071;29;20457;-73
2023/06/29 15:15:24;;;;;;;14.67;14.17;;;30.70;51.40;;;;;;4935059;29;20464;-72
2023/06/29 15:17:51;;;;;;;14.10;13.60;;;30.90;51.20;;;;;;4934697;29;20909;-72
2023/06/29 15:20:19;;;;;;;14.33;13.77;;;31.00;51.10;;;;;;4935103;29;20457;-73
2023/06/29 15:22:45;;;;;;;14.70;14.10;;;30.80;51.60;;;;;;4935015;29;20990;-73
2023/06/29 15:25:12;;;;;;;13.80;12.97;;;30.80;51.80;;;;;;4934927;29;20484;-73
2023/06/29 15:27:39;;;;;;;14.67;14.17;;;30.40;52.70;;;;;;4934577;29;20481;-73
2023/06/29 15:30:07;;;;;;;14.03;13.43;;;30.40;52.90;;;;;;4934681;29;20450;-73
2023/06/29 15:32:33;;;;;;;13.73;13.13;;;30.40;52.80;;;;;;4934650;29;20464;-72
2023/06/29 15:35:02;;;;;;;14.67;13.77;;;30.30;52.90;;;;;;4934913;29;20461;-73
2023/06/29 15:37:31;;;;;;;13.67;13.03;;;30.50;52.90;;;;;;4934740;29;20486;-73